Terminal Aerodrome Forecast
Issued by NWS Mt. Holly, NJ

Home | Current Version | Previous Version | Text Only | Print | Product List | Glossary On
Versions: 1 2 3 4 5 6 7 8 9 10 11 12 13 14 15 16 17 18 19 20 21
000
FTUS41 KPHI 260807 AAA
TAFACY
TAF AMD
KACY 260807Z 2608/2706 VRB03KT P6SM SCT005
      TEMPO 2608/2612 4SM BR BKN005
     FM261300 31006KT P6SM SCT025
     FM261500 27008KT P6SM SCT050
     FM270000 VRB03KT P6SM SCT250=

USA.gov is the U.S. government's official web portal to all federal, state and local government web resources and services.